Latest Weather Observations for Williamson

IDQ60801

Issued at 4:02 pm EST Tuesday 21 April 2015 (issued every 30 minutes, with the page automatically refreshed every 10 minutes)

About weather observations | Map of weather stations | Latest weather observations for QLD | Other Formats
Station Details ID: 033195 Name: WILLIAMSON Lat: -22.47 Lon: 150.18 Height: 27.6 m
Data from the previous 72 hours. | See also: Recent months at Williamson
Date/Time
EST
Temp
°C
App
Temp
°C
Dew
Point
Rel
Hum
%
Delta-T
°C
Wind Press
QNH
hPa
Press
MSL
hPa
Rain
since 9 am
mm
Dir
 
Spd
km/h
Gust
km/h
Spd
kts
Gust
kts
21/04:00pm 24.9 20.6 5.2 28 10.0 SSW 17 24 9 13 1014.5 1014.3 0.0
21/03:30pm 25.3 21.4 5.5 28 10.1 SSW 15 22 8 12 1014.7 1014.6 0.0
21/03:00pm 25.0 21.0 4.7 27 10.2 S 15 22 8 12 1014.9 1014.8 0.0
21/02:30pm 24.8 21.1 6.1 30 9.6 S 15 24 8 13 1015.0 1014.9 0.0
21/02:00pm 24.5 20.4 6.3 31 9.4 SSW 17 26 9 14 1015.3 1015.2 0.0
21/01:30pm 24.5 20.6 7.2 33 9.1 SSW 17 28 9 15 1015.5 1015.4 0.0
21/01:00pm 24.5 20.1 7.2 33 9.1 SSW 20 30 11 16 1015.8 1015.7 0.0
21/12:30pm 24.1 20.1 8.1 36 8.5 S 19 32 10 17 1016.3 1016.2 0.0
21/12:00pm 23.8 19.8 8.2 37 8.3 SSW 19 30 10 16 1016.8 1016.7 0.0
21/11:30am 22.9 18.1 7.4 37 8.1 SSW 22 30 12 16 1017.4 1017.3 0.0
21/11:00am 22.1 17.0 7.5 39 7.6 S 24 32 13 17 1018.0 1017.9 0.0
21/10:30am 20.9 15.9 6.4 39 7.3 S 22 32 12 17 1018.3 1018.2 0.0
21/10:00am 20.2 15.5 6.2 40 7.0 S 20 32 11 17 1018.5 1018.4 0.0
21/09:30am 19.3 14.1 5.7 41 6.7 S 22 35 12 19 1018.7 1018.6 0.0
21/09:00am 19.5 13.9 5.6 40 6.8 S 24 37 13 20 1018.8 1018.7 0.0
21/08:30am 18.1 12.7 6.3 46 5.8 SSW 24 35 13 19 1018.7 1018.6 0.0
21/08:00am 17.1 12.5 6.6 50 5.2 S 20 32 11 17 1018.6 1018.5 0.0
21/07:30am 16.3 12.4 7.0 54 4.6 SSW 17 24 9 13 1018.5 1018.4 0.0
21/07:00am 15.4 11.6 5.9 53 4.6 SSW 15 22 8 12 1018.5 1018.4 0.0
21/06:30am 15.4 10.8 5.6 52 4.7 S 19 24 10 13 1018.0 1017.9 0.0
21/06:00am 15.5 10.7 5.7 52 4.7 SSW 20 28 11 15 1017.8 1017.7 0.0
21/05:30am 15.5 10.9 5.7 52 4.7 SSW 19 26 10 14 1017.9 1017.8 0.0
21/05:00am 15.4 10.9 6.1 54 4.5 SSW 19 26 10 14 1017.8 1017.7 0.0
21/04:30am 15.6 12.0 6.6 55 4.4 SSW 15 22 8 12 1017.6 1017.5 0.0
21/04:00am 15.8 11.9 7.3 57 4.2 S 17 22 9 12 1017.3 1017.2 0.0
21/03:30am 15.8 12.2 8.5 62 3.7 S 17 24 9 13 1017.2 1017.1 0.0
21/03:00am 15.8 12.4 10.6 71 2.8 SSW 19 24 10 13 1017.2 1017.1 0.0
21/02:30am 15.9 13.5 11.5 75 2.4 S 15 20 8 11 1017.3 1017.2 0.0
21/02:00am 16.3 13.3 11.9 75 2.4 SSW 19 24 10 13 1017.5 1017.4 0.0
21/01:30am 16.6 14.1 12.4 76 2.3 SSW 17 24 9 13 1017.8 1017.7 0.0
21/01:00am 16.8 14.0 12.5 76 2.4 SSW 19 26 10 14 1018.1 1018.0 0.0
21/12:30am 17.1 14.5 13.2 78 2.2 SSW 19 26 10 14 1018.1 1018.0 0.0
21/12:00am 17.3 14.1 13.2 77 2.3 SSW 22 32 12 17 1018.0 1017.9 0.0
 
Date/Time
EST
Temp
°C
App
Temp
°C
Dew
Point
Rel
Hum
%
Delta-T
°C
Wind Press
QNH
hPa
Press
MSL
hPa
Rain
since 9 am
mm
Dir
 
Spd
km/h
Gust
km/h
Spd
kts
Gust
kts
20/11:30pm 17.5 15.8 13.6 78 2.2 S 15 20 8 11 1018.2 1018.1 0.0
20/11:00pm 17.6 15.7 14.1 80 2.0 S 17 28 9 15 1018.4 1018.3 0.0
20/10:30pm 17.5 17.2 14.4 82 1.8 SSE 9 17 5 9 1018.4 1018.3 0.0
20/10:00pm 17.8 15.4 14.5 81 1.9 S 20 28 11 15 1018.2 1018.1 0.0
20/09:30pm 18.1 16.0 14.6 80 2.0 SSW 19 24 10 13 1018.5 1018.4 0.0
20/09:00pm 18.4 16.8 15.1 81 1.9 S 17 22 9 12 1018.7 1018.6 0.0
20/08:30pm 18.9 17.1 15.6 81 1.9 SSW 19 26 10 14 1018.8 1018.7 0.0
20/08:00pm 19.3 17.0 15.8 80 2.1 SSW 22 32 12 17 1018.5 1018.4 0.0
20/07:30pm 20.0 18.5 16.4 80 2.2 SSW 19 26 10 14 1018.2 1018.1 0.0
20/07:00pm 20.4 19.8 16.6 79 2.3 SSW 15 20 8 11 1017.4 1017.3 0.0
20/06:30pm 21.2 19.9 16.8 76 2.7 SSW 19 28 10 15 1017.3 1017.2 0.0
20/06:00pm 22.0 20.7 16.7 72 3.2 SSW 19 30 10 16 1016.8 1016.7 0.0
20/05:30pm 22.8 21.8 16.6 68 3.8 S 17 24 9 13 1016.4 1016.3 0.0
20/05:00pm 23.8 22.1 16.3 63 4.6 SSW 20 35 11 19 1016.3 1016.2 0.0
20/04:30pm 24.2 22.3 16.7 63 4.6 SSW 22 39 12 21 1015.9 1015.8 0.0
20/04:00pm 24.6 22.7 16.8 62 4.8 S 22 35 12 19 1015.7 1015.6 0.0
20/03:30pm 24.8 22.6 17.0 62 4.8 S 24 35 13 19 1015.4 1015.3 0.0
20/03:00pm 26.0 24.2 18.7 64 4.7 S 26 37 14 20 1015.0 1014.9 0.0
20/02:30pm 26.1 25.1 18.8 64 4.7 SSE 22 37 12 20 1015.1 1015.0 0.0
20/02:00pm 26.0 25.0 18.9 65 4.5 S 22 32 12 17 1015.1 1015.0 0.0
20/01:30pm 26.3 25.6 18.7 63 4.9 SSW 20 32 11 17 1015.2 1015.1 0.0
20/01:00pm 27.0 26.8 18.6 60 5.4 S 17 26 9 14 1015.7 1015.6 0.0
20/12:30pm 26.5 25.8 18.6 62 5.0 S 20 30 11 16 1016.4 1016.3 0.0
20/12:00pm 27.1 26.3 19.2 62 5.1 SSW 22 30 12 16 1016.8 1016.7 0.0
20/11:30am 25.7 24.8 19.1 67 4.2 SSW 22 30 12 16 1017.2 1017.1 0.0
20/11:00am 25.9 25.6 19.5 68 4.1 SSW 20 32 11 17 1017.6 1017.5 0.0
20/10:30am 26.6 26.6 19.7 66 4.5 S 19 30 10 16 1017.6 1017.5 0.0
20/10:00am 25.6 25.7 19.9 70 3.7 S 19 28 10 15 1017.9 1017.8 0.0
20/09:30am 24.2 23.9 19.5 75 3.0 SSW 20 30 11 16 1017.9 1017.8 0.0
20/09:00am 24.3 24.1 19.8 76 2.9 S 20 30 11 16 1017.7 1017.6 0.0
20/08:30am 23.8 23.9 19.9 79 2.5 SSW 19 24 10 13 1017.6 1017.5 0.0
20/08:00am 23.0 23.1 20.0 83 1.9 S 19 30 10 16 1017.7 1017.6 0.0
20/07:30am 22.9 23.4 20.1 84 1.8 SSW 17 24 9 13 1017.2 1017.1 0.0
20/07:00am 22.5 23.9 20.4 88 1.4 S 13 19 7 10 1016.9 1016.8 0.0
20/06:30am 21.3 23.9 20.5 95 0.5 S 7 11 4 6 1016.3 1016.2 0.0
20/06:00am 21.1 23.6 19.9 93 0.8 S 6 9 3 5 1016.0 1015.9 0.0
20/05:30am 21.5 23.6 20.1 92 0.9 SSE 9 13 5 7 1016.2 1016.1 0.0
20/05:00am 21.4 23.1 20.2 93 0.8 S 11 15 6 8 1016.2 1016.1 0.0
20/04:30am 20.9 23.2 19.9 94 0.6 S 7 9 4 5 1016.1 1016.0 0.0
20/04:00am 21.0 23.4 19.6 92 0.9 SSE 6 7 3 4 1015.8 1015.7 0.0
20/03:30am 21.2 23.7 19.8 92 0.9 SSE 6 9 3 5 1016.1 1016.0 0.0
20/03:00am 21.1 23.4 19.9 93 0.8 S 7 11 4 6 1016.1 1016.0 0.0
20/02:30am 21.1 23.5 19.7 92 0.9 SSE 6 9 3 5 1016.3 1016.2 0.0
20/02:00am 20.9 23.7 19.7 93 0.8 SSE 4 6 2 3 1016.4 1016.3 0.0
20/01:30am 21.1 23.6 19.9 93 0.8 SSE 6 9 3 5 1016.7 1016.6 0.0
20/01:00am 21.0 24.4 20.2 95 0.5 SSE 2 9 1 5 1017.1 1017.0 0.0
20/12:30am 20.7 23.2 19.9 95 0.5 SSW 6 7 3 4 1017.5 1017.4 0.0
20/12:00am 20.6 24.2 19.8 95 0.5 CALM 0 0 0 0 1017.5 1017.4 0.0
 
Date/Time
EST
Temp
°C
App
Temp
°C
Dew
Point
Rel
Hum
%
Delta-T
°C
Wind Press
QNH
hPa
Press
MSL
hPa
Rain
since 9 am
mm
Dir
 
Spd
km/h
Gust
km/h
Spd
kts
Gust
kts
19/11:30pm 20.9 24.6 19.9 94 0.6 CALM 0 0 0 0 1017.4 1017.3 0.0
19/11:00pm 21.4 24.1 20.2 93 0.8 ENE 6 9 3 5 1017.4 1017.3 0.0
19/10:30pm 21.6 25.4 20.2 92 0.9 CALM 0 9 0 5 1017.6 1017.5 0.0
19/10:00pm 22.1 25.6 20.4 90 1.1 ESE 2 6 1 3 1017.5 1017.4 0.0
19/09:30pm 22.2 25.7 19.6 85 1.7 CALM 0 6 0 3 1017.4 1017.3 0.0
19/09:00pm 22.2 25.3 19.6 85 1.7 E 2 7 1 4 1017.2 1017.1 0.0
19/08:30pm 22.5 24.7 19.1 81 2.2 ENE 6 7 3 4 1017.1 1017.0 0.0
19/08:00pm 23.8 25.5 19.3 76 2.9 ENE 9 13 5 7 1017.0 1016.9 0.0
19/07:30pm 23.9 26.1 19.2 75 3.0 E 6 9 3 5 1016.8 1016.7 0.0
19/07:00pm 24.2 26.7 19.1 73 3.3 E 4 9 2 5 1016.6 1016.5 0.0
19/06:30pm 24.8 27.4 19.2 71 3.6 ENE 4 7 2 4 1016.3 1016.2 0.0
19/06:00pm 25.4 27.2 18.8 67 4.2 ENE 7 13 4 7 1016.1 1016.0 0.0
19/05:30pm 26.0 27.0 18.7 64 4.7 E 11 19 6 10 1015.8 1015.7 0.0
19/05:00pm 26.6 28.5 19.7 66 4.5 E 9 15 5 8 1015.6 1015.5 0.0
19/04:30pm 27.1 28.3 19.9 64 4.7 NE 13 22 7 12 1015.1 1015.0 0.0
19/04:00pm 27.3 29.0 20.1 64 4.7 NNE 11 19 6 10 1015.2 1015.1 0.0
19/03:30pm 27.7 29.0 19.2 60 5.5 NE 11 20 6 11 1015.3 1015.2 0.0
19/03:00pm 27.8 28.6 19.1 59 5.6 NNE 13 24 7 13 1015.1 1015.0 0.0
19/02:30pm 28.2 28.4 18.6 56 6.2 NE 15 22 8 12 1015.0 1014.9 0.0
19/02:00pm 30.0 31.5 18.8 51 7.2 N 9 17 5 9 1015.1 1015.0 0.0
19/01:30pm 29.1 29.7 17.6 50 7.3 ENE 11 17 6 9 1015.5 1015.4 0.0
19/01:00pm 29.7 30.1 18.2 50 7.4 ENE 13 20 7 11 1016.0 1015.9 0.0
19/12:30pm 29.0 30.4 17.8 50 7.1 SE 7 13 4 7 1016.6 1016.5 0.0
19/12:00pm 29.0 29.8 18.1 51 7.0 ENE 11 17 6 9 1017.0 1016.9 0.0
19/11:30am 28.6 29.9 17.2 50 7.2 E 6 13 3 7 1017.6 1017.5 0.0
19/11:00am 28.8 29.8 17.7 51 7.0 E 9 15 5 8 1018.1 1018.0 0.0
19/10:30am 29.2 30.0 17.4 49 7.5 ENE 9 20 5 11 1018.5 1018.4 0.0
19/10:00am 28.4 29.0 17.6 52 6.8 ENE 11 17 6 9 1018.7 1018.6 0.0
19/09:30am 28.2 29.3 18.0 54 6.5 E 9 17 5 9 1018.5 1018.4 0.0
19/09:00am 27.4 28.1 18.9 59 5.5 ESE 13 22 7 12 1018.4 1018.3 0.0
19/08:30am 26.6 29.0 20.0 67 4.3 ESE 7 17 4 9 1018.1 1018.0 0.0
19/08:00am 24.2 27.2 20.1 78 2.7 SSW 4 7 2 4 1018.0 1017.9 0.0
19/07:30am 22.2 24.7 19.9 87 1.5 SSW 6 6 3 3 1017.8 1017.7 0.0
19/07:00am 20.5 24.1 19.7 95 0.5 CALM 0 0 0 0 1017.5 1017.4 0.0
19/06:30am 19.8 22.3 19.1 96 0.4 S 4 7 2 4 1017.5 1017.4 0.0
19/06:00am 20.0 23.3 19.2 95 0.5 CALM 0 6 0 3 1017.5 1017.4 0.0
19/05:30am 20.2 22.3 19.0 93 0.8 S 6 7 3 4 1017.1 1017.0 0.0
19/05:00am 21.0 24.3 19.1 89 1.2 CALM 0 0 0 0 1016.6 1016.5 0.0
19/04:30am 22.0 24.6 20.1 89 1.2 ENE 6 9 3 5 1016.4 1016.3 0.0
19/04:00am 22.3 24.9 20.0 87 1.5 E 6 7 3 4 1016.4 1016.3 0.0
19/03:30am 21.3 25.0 19.9 92 0.9 CALM 0 0 0 0 1016.5 1016.4 0.0
19/03:00am 22.1 25.4 20.0 88 1.3 NE 2 6 1 3 1016.6 1016.5 0.0
19/02:30am 22.3 25.0 20.2 88 1.4 ENE 6 7 3 4 1016.7 1016.6 0.0
19/02:00am 23.1 25.7 20.1 83 1.9 E 6 7 3 4 1017.1 1017.0 0.0
19/01:30am 23.4 27.0 19.8 80 2.3 CALM 0 6 0 3 1017.7 1017.6 0.0
19/01:00am 24.1 26.2 20.2 79 2.5 E 9 13 5 7 1017.9 1017.8 0.0
19/12:30am 24.5 26.6 20.2 77 2.8 E 9 15 5 8 1018.1 1018.0 0.0
19/12:00am 24.6 26.8 20.5 78 2.7 E 9 15 5 8 1018.2 1018.1 0.0
 
Date/Time
EST
Temp
°C
App
Temp
°C
Dew
Point
Rel
Hum
%
Delta-T
°C
Wind Press
QNH
hPa
Press
MSL
hPa
Rain
since 9 am
mm
Dir
 
Spd
km/h
Gust
km/h
Spd
kts
Gust
kts
18/11:30pm 24.4 26.6 20.5 79 2.5 E 9 15 5 8 1018.4 1018.3 0.0
18/11:00pm 24.4 26.6 20.5 79 2.5 SE 9 15 5 8 1018.5 1018.4 0.0
18/10:30pm 23.7 26.8 20.2 81 2.3 E 4 7 2 4 1018.6 1018.5 0.0
18/10:00pm 23.9 25.9 20.0 79 2.5 E 9 15 5 8 1018.6 1018.5 0.0
18/09:30pm 24.0 27.0 20.1 79 2.5 ENE 4 13 2 7 1018.6 1018.5 0.0
18/09:00pm 24.0 26.2 20.3 80 2.4 E 9 15 5 8 1018.6 1018.5 0.0
18/08:30pm 23.9 26.4 20.2 80 2.4 E 7 13 4 7 1018.5 1018.4 0.0
18/08:00pm 24.5 27.1 20.4 78 2.7 ESE 7 11 4 6 1018.3 1018.2 0.0
18/07:30pm 24.7 26.9 20.4 77 2.8 ESE 9 17 5 9 1018.1 1018.0 0.0
18/07:00pm 24.8 27.0 20.5 77 2.8 ESE 9 15 5 8 1017.5 1017.4 0.0
18/06:30pm 24.7 26.8 20.2 76 2.9 ESE 9 13 5 7 1017.3 1017.2 0.0
18/06:00pm 25.1 26.9 20.4 75 3.1 E 11 20 6 11 1016.9 1016.8 0.0
18/05:30pm 25.8 26.7 20.1 71 3.7 E 15 26 8 14 1016.8 1016.7 0.0
18/05:00pm 26.4 27.2 19.8 67 4.3 E 15 22 8 12 1016.5 1016.4 0.0
18/04:30pm 27.3 28.0 19.6 62 5.0 E 15 28 8 15 1016.2 1016.1 0.0

Other Formats:

Comma delimited format used in spreadsheet applications
http://www.bom.gov.au/fwo/IDQ60801/IDQ60801.95370.axf

JavaScript Object Notation format (JSON) in row-major order
http://www.bom.gov.au/fwo/IDQ60801/IDQ60801.95370.json